createdAt,value
2022-09-05T00:00:11.841Z,79.69
2022-09-05T00:01:09.620Z,79.60
2022-09-05T00:02:09.618Z,79.69
2022-09-05T00:03:09.657Z,79.69
2022-09-05T00:04:24.921Z,79.49
2022-09-05T00:05:10.569Z,79.49
2022-09-05T00:06:09.550Z,79.49
2022-09-05T00:07:09.551Z,79.39
2022-09-05T00:08:09.545Z,79.49
2022-09-05T00:09:09.655Z,79.39
2022-09-05T00:10:09.539Z,79.49
2022-09-05T00:11:41.598Z,79.60
2022-09-05T00:12:10.472Z,79.69
2022-09-05T00:13:09.484Z,79.80
2022-09-05T00:14:09.460Z,79.90
2022-09-05T00:15:16.627Z,79.99
2022-09-05T00:16:10.483Z,80.10
2022-09-05T00:17:09.411Z,80.19
2022-09-05T00:22:07.096Z,80.33
2022-09-05T00:24:17.725Z,80.43
2022-09-05T00:24:18.660Z,80.43
2022-09-05T00:24:27.646Z,80.54
2022-09-05T00:24:28.181Z,80.43
2022-09-05T00:24:30.241Z,80.74
2022-09-05T00:24:30.242Z,80.74
2022-09-05T00:26:10.301Z,80.83
2022-09-05T00:27:09.282Z,80.94
2022-09-05T00:28:25.983Z,80.94
2022-09-05T00:29:10.264Z,80.94
2022-09-05T00:31:05.530Z,80.94
2022-09-05T00:31:54.527Z,80.94
2022-09-05T00:32:10.280Z,80.94
2022-09-05T00:33:16.786Z,80.94
2022-09-05T00:34:10.209Z,80.94
2022-09-05T00:35:09.194Z,81.04
2022-09-05T00:36:09.181Z,81.04
2022-09-05T00:37:09.146Z,80.94
2022-09-05T00:38:09.149Z,80.94
2022-09-05T00:39:09.120Z,80.94
2022-09-05T00:40:18.128Z,80.94
2022-09-05T00:41:10.114Z,80.94
2022-09-05T00:42:09.091Z,80.98
2022-09-05T00:43:09.078Z,80.88
2022-09-05T00:44:09.083Z,80.88
2022-09-05T00:45:14.528Z,80.98
2022-09-05T00:46:10.197Z,80.98
2022-09-05T00:47:09.009Z,80.98
2022-09-05T00:48:09.020Z,81.07
2022-09-05T00:49:09.013Z,81.18
2022-09-05T00:50:08.990Z,81.18
2022-09-05T00:51:08.990Z,81.27
2022-09-05T00:52:08.991Z,81.27
2022-09-05T00:53:08.952Z,81.48
2022-09-05T00:54:08.925Z,81.58
2022-09-05T00:55:08.919Z,81.68
2022-09-05T00:56:08.918Z,81.78
2022-09-05T00:57:08.888Z,81.88
2022-09-05T00:58:09.921Z,81.98
2022-09-05T00:59:08.858Z,81.98
2022-09-05T01:00:10.785Z,82.12
2022-09-05T01:01:21.184Z,82.12
2022-09-05T01:02:10.009Z,82.12
2022-09-05T01:03:08.906Z,82.12
2022-09-05T01:04:08.840Z,82.22
2022-09-05T01:05:08.797Z,82.32
2022-09-05T01:06:08.790Z,82.42
2022-09-05T01:07:08.768Z,82.42
2022-09-05T01:08:08.754Z,82.32
2022-09-05T01:09:08.731Z,82.32
2022-09-05T01:10:08.738Z,82.42
2022-09-05T01:11:08.740Z,82.42
2022-09-05T01:12:08.701Z,82.42
2022-09-05T01:13:08.702Z,82.42
2022-09-05T01:14:12.778Z,82.52
2022-09-05T01:15:08.667Z,82.52
2022-09-05T01:16:08.771Z,82.52
2022-09-05T01:17:08.638Z,82.52
2022-09-05T01:18:08.630Z,82.42
2022-09-05T01:19:08.630Z,82.52
2022-09-05T01:20:19.751Z,82.42
2022-09-05T01:21:09.597Z,82.42
2022-09-05T01:22:08.591Z,82.42
2022-09-05T01:23:08.962Z,82.42
2022-09-05T01:24:08.565Z,82.42
2022-09-05T01:25:08.524Z,82.42
2022-09-05T01:26:08.516Z,82.52
2022-09-05T01:27:08.546Z,82.52
2022-09-05T01:29:13.517Z,82.52
2022-09-05T01:29:18.641Z,82.62
2022-09-05T01:30:09.469Z,82.52
2022-09-05T01:31:08.494Z,82.62
2022-09-05T01:32:08.444Z,82.62
2022-09-05T01:33:08.467Z,82.62
2022-09-05T01:34:08.411Z,82.62
2022-09-05T01:35:08.397Z,82.62
2022-09-05T01:36:08.409Z,82.76
2022-09-05T01:37:08.383Z,82.76
2022-09-05T01:38:09.376Z,82.76
2022-09-05T01:40:10.459Z,82.86
2022-09-05T01:40:14.729Z,82.86
2022-09-05T01:41:19.335Z,82.97
2022-09-05T01:42:09.320Z,82.97
2022-09-05T01:43:08.320Z,82.97
2022-09-05T01:44:08.296Z,82.86
2022-09-05T01:45:08.280Z,82.97
2022-09-05T01:46:11.620Z,82.97
2022-09-05T01:47:08.242Z,82.86
2022-09-05T01:48:08.237Z,82.76
2022-09-05T01:49:08.239Z,82.66
2022-09-05T01:50:08.248Z,82.66
2022-09-05T01:51:28.247Z,82.66
2022-09-05T01:52:09.186Z,82.46
2022-09-05T01:53:08.177Z,82.36
2022-09-05T01:54:21.186Z,82.16
2022-09-05T01:55:09.180Z,82.12
2022-09-05T01:56:11.500Z,82.02
2022-09-05T01:57:08.107Z,81.92
2022-09-05T01:58:08.109Z,81.82
2022-09-05T01:59:08.108Z,81.82
2022-09-05T02:00:08.093Z,81.72
2022-09-05T02:01:25.487Z,81.72
2022-09-05T02:02:09.089Z,81.72
2022-09-05T02:03:08.073Z,81.72
2022-09-05T02:04:08.035Z,81.52
2022-09-05T02:05:08.036Z,81.32
2022-09-05T02:06:08.017Z,81.41
2022-09-05T02:07:30.515Z,81.32
2022-09-05T02:08:08.975Z,81.32
2022-09-05T02:09:07.974Z,81.32
2022-09-05T02:10:07.975Z,81.32
2022-09-05T02:11:07.937Z,81.32
2022-09-05T02:12:07.915Z,81.32
2022-09-05T02:13:07.934Z,81.32
2022-09-05T02:14:07.918Z,81.32
2022-09-05T02:15:07.898Z,81.41
2022-09-05T02:16:07.947Z,81.41
2022-09-05T02:17:07.856Z,81.52
2022-09-05T02:18:08.888Z,81.32
2022-09-05T02:19:07.857Z,81.26
2022-09-05T02:20:07.834Z,81.35
2022-09-05T02:21:07.818Z,81.35
2022-09-05T02:22:07.794Z,81.35
2022-09-05T02:23:29.444Z,81.35
2022-09-05T02:24:08.803Z,81.35
2022-09-05T02:26:00.624Z,81.35
2022-09-05T02:26:08.743Z,81.35
2022-09-05T02:27:07.744Z,81.46
2022-09-05T02:28:07.727Z,81.46
2022-09-05T02:29:07.714Z,81.46
2022-09-05T02:30:07.737Z,81.56
2022-09-05T02:31:19.595Z,81.56
2022-09-05T02:32:08.665Z,81.56
2022-09-05T02:33:07.677Z,81.65
2022-09-05T02:34:07.655Z,81.65
2022-09-05T02:35:07.633Z,81.65
2022-09-05T02:36:07.658Z,81.65
2022-09-05T02:37:07.616Z,81.65
2022-09-05T02:39:07.533Z,81.76
2022-09-05T02:45:03.485Z,81.96
2022-09-05T02:45:06.540Z,82.16
2022-09-05T02:45:07.258Z,81.85
2022-09-05T02:45:14.649Z,82.06
2022-09-05T02:45:19.111Z,81.96
2022-09-05T02:45:20.007Z,82.26
2022-09-05T02:45:26.659Z,82.26
2022-09-05T02:46:08.590Z,82.30
2022-09-05T02:47:07.565Z,82.40
2022-09-05T02:48:14.931Z,82.40
2022-09-05T02:49:41.869Z,82.40
2022-09-05T02:53:30.116Z,82.40
2022-09-05T02:56:37.605Z,82.50
2022-09-05T02:57:25.370Z,82.50
2022-09-05T02:57:37.440Z,82.70
2022-09-05T02:57:38.336Z,82.70
2022-09-05T02:57:38.988Z,82.80
2022-09-05T02:57:41.591Z,82.60
2022-09-05T02:58:04.118Z,82.70
2022-09-05T02:58:09.075Z,82.80
2022-09-05T02:59:10.036Z,82.90
2022-09-05T03:00:07.326Z,82.90
2022-09-05T03:01:07.377Z,83.00
2022-09-05T03:02:25.720Z,83.00
2022-09-05T03:03:08.344Z,83.00
2022-09-05T03:04:07.294Z,83.11
2022-09-05T03:05:07.265Z,83.20
2022-09-05T03:06:07.246Z,83.31
2022-09-05T03:07:07.232Z,83.31
2022-09-05T03:08:07.195Z,83.40
2022-09-05T03:09:16.753Z,83.51
2022-09-05T03:10:08.223Z,83.51
2022-09-05T03:11:07.178Z,83.51
2022-09-05T03:12:17.867Z,83.61
2022-09-05T03:13:08.156Z,83.51
2022-09-05T03:14:07.125Z,83.51
2022-09-05T03:15:19.404Z,83.51
2022-09-05T03:16:08.102Z,83.51
2022-09-05T03:17:07.098Z,83.61
2022-09-05T03:18:20.858Z,83.61
2022-09-05T03:19:08.077Z,83.51
2022-09-05T03:20:07.055Z,83.51
2022-09-05T03:21:09.632Z,83.51
2022-09-05T03:22:07.055Z,83.51
2022-09-05T03:23:07.025Z,83.51
2022-09-05T03:24:07.010Z,83.51
2022-09-05T03:25:06.980Z,83.61
2022-09-05T03:26:08.983Z,83.71
2022-09-05T03:27:06.960Z,83.81
2022-09-05T03:28:06.941Z,83.81
2022-09-05T03:29:06.961Z,83.81
2022-09-05T03:30:06.922Z,83.81
2022-09-05T03:31:07.032Z,83.91
2022-09-05T03:32:07.891Z,83.91
2022-09-05T03:33:06.871Z,83.91
2022-09-05T03:34:06.886Z,83.91
2022-09-05T03:35:08.890Z,83.91
2022-09-05T03:36:06.838Z,83.81
2022-09-05T03:37:06.845Z,83.81
2022-09-05T03:38:06.809Z,83.81
2022-09-05T03:39:06.820Z,83.71
2022-09-05T03:40:16.011Z,83.81
2022-09-05T03:41:07.770Z,83.81
2022-09-05T03:42:14.491Z,83.91
2022-09-05T03:43:07.770Z,83.91
2022-09-05T03:44:06.737Z,83.91
2022-09-05T03:45:06.742Z,83.81
2022-09-05T03:46:06.719Z,83.91
2022-09-05T03:47:06.715Z,83.81
2022-09-05T03:48:23.157Z,83.81
2022-09-05T03:51:51.490Z,83.81
2022-09-05T03:56:08.974Z,83.71
2022-09-05T03:56:30.983Z,83.81
2022-09-05T03:57:10.413Z,83.71
2022-09-05T03:57:14.440Z,83.71
2022-09-05T03:57:15.325Z,83.71
2022-09-05T03:57:16.677Z,83.71
2022-09-05T03:57:17.659Z,83.61
2022-09-05T03:57:33.701Z,83.71
2022-09-05T03:58:16.260Z,83.61
2022-09-05T03:59:07.540Z,83.61
2022-09-05T04:00:06.541Z,83.61
2022-09-05T04:01:17.560Z,83.71
2022-09-05T04:04:54.905Z,83.61
2022-09-05T04:08:06.516Z,83.51
2022-09-05T04:08:11.269Z,83.61
2022-09-05T04:08:17.536Z,83.71
2022-09-05T04:08:18.539Z,83.61
2022-09-05T04:08:24.412Z,83.61
2022-09-05T04:08:41.910Z,83.71
2022-09-05T04:09:07.542Z,83.61
2022-09-05T04:10:06.508Z,83.71
2022-09-05T04:11:06.488Z,83.61
2022-09-05T04:12:06.366Z,83.61
2022-09-05T04:13:06.359Z,83.75
2022-09-05T04:14:06.374Z,83.65
2022-09-05T04:15:06.355Z,83.65
2022-09-05T04:16:06.310Z,83.65
2022-09-05T04:17:08.511Z,83.65
2022-09-05T04:18:06.312Z,83.65
2022-09-05T04:19:06.314Z,83.65
2022-09-05T04:20:06.271Z,83.75
2022-09-05T04:21:06.256Z,83.75
2022-09-05T04:22:06.464Z,83.75
2022-09-05T04:23:06.242Z,83.84
2022-09-05T04:24:06.241Z,83.84
2022-09-05T04:25:06.230Z,83.95
2022-09-05T04:26:11.451Z,84.09
2022-09-05T04:27:07.194Z,84.15
2022-09-05T04:28:06.174Z,84.19
2022-09-05T04:29:06.158Z,84.29
2022-09-05T04:30:35.330Z,84.39
2022-09-05T04:31:07.144Z,84.39
2022-09-05T04:32:18.129Z,84.49
2022-09-05T04:33:07.112Z,84.59
2022-09-05T04:34:06.102Z,84.69
2022-09-05T04:35:06.075Z,84.69
2022-09-05T04:36:17.884Z,84.69
2022-09-05T04:37:07.057Z,84.80
2022-09-05T04:38:06.018Z,84.80
2022-09-05T04:39:06.038Z,84.80
2022-09-05T04:40:06.123Z,84.89
2022-09-05T04:41:05.997Z,84.89
2022-09-05T04:42:05.985Z,84.89
2022-09-05T04:43:05.983Z,84.89
2022-09-05T04:44:05.958Z,84.89
2022-09-05T04:45:05.939Z,85.00
2022-09-05T04:46:06.040Z,85.00
2022-09-05T04:47:05.921Z,85.10
2022-09-05T04:48:05.897Z,85.10
2022-09-05T04:49:05.900Z,85.10
2022-09-05T04:50:05.895Z,85.10
2022-09-05T04:51:05.981Z,85.10
2022-09-05T04:52:05.853Z,85.10
2022-09-05T04:53:05.850Z,85.20
2022-09-05T04:54:05.818Z,85.24
2022-09-05T04:55:05.849Z,85.30
2022-09-05T04:56:05.815Z,85.34
2022-09-05T04:57:13.753Z,85.34
2022-09-05T04:58:06.759Z,85.44
2022-09-05T05:01:40.708Z,85.44
2022-09-05T05:06:01.373Z,85.54
2022-09-05T05:06:03.161Z,85.44
2022-09-05T05:06:04.050Z,85.44
2022-09-05T05:06:12.917Z,85.54
2022-09-05T05:06:15.941Z,85.54
2022-09-05T05:06:16.122Z,85.64
2022-09-05T05:06:38.193Z,85.54
2022-09-05T05:07:08.036Z,85.64
2022-09-05T05:08:05.806Z,85.64
2022-09-05T05:09:05.641Z,85.64
2022-09-05T05:11:19.972Z,85.74
2022-09-05T05:17:53.890Z,85.84
2022-09-05T05:17:57.935Z,85.74
2022-09-05T05:17:58.767Z,85.74
2022-09-05T05:18:04.179Z,85.84
2022-09-05T05:18:08.291Z,85.84
2022-09-05T05:18:11.322Z,85.84
2022-09-05T05:18:14.076Z,85.84
2022-09-05T05:18:37.594Z,85.84
2022-09-05T05:19:18.569Z,85.94
2022-09-05T05:20:42.199Z,85.94
2022-09-05T05:21:06.505Z,85.90
2022-09-05T05:22:05.448Z,86.00
2022-09-05T05:23:07.974Z,86.00
2022-09-05T05:24:05.437Z,86.00
2022-09-05T05:25:05.415Z,86.10
2022-09-05T05:26:05.404Z,86.10
2022-09-05T05:27:05.382Z,86.10
2022-09-05T05:28:10.946Z,86.10
2022-09-05T05:29:06.346Z,86.21
2022-09-05T05:30:05.376Z,86.10
2022-09-05T05:31:05.348Z,86.10
2022-09-05T05:32:05.345Z,86.00
2022-09-05T05:33:05.318Z,86.00
2022-09-05T05:34:09.779Z,86.00
2022-09-05T05:35:06.290Z,85.80
2022-09-05T05:36:05.263Z,85.60
2022-09-05T05:37:05.268Z,85.60
2022-09-05T05:38:05.260Z,85.60
2022-09-05T05:39:05.252Z,85.60
2022-09-05T05:40:05.284Z,85.40
2022-09-05T05:41:05.227Z,85.40
2022-09-05T05:42:20.910Z,85.30
2022-09-05T05:43:06.208Z,85.05
2022-09-05T05:44:05.168Z,85.05
2022-09-05T05:45:05.176Z,85.05
2022-09-05T05:46:05.873Z,84.85
2022-09-05T05:47:05.148Z,84.85
2022-09-05T05:48:05.105Z,84.85
2022-09-05T05:49:05.109Z,84.75
2022-09-05T05:50:05.100Z,84.75
2022-09-05T05:51:06.074Z,84.65
2022-09-05T05:52:05.044Z,84.45
2022-09-05T05:53:05.034Z,84.45
2022-09-05T05:54:05.024Z,84.25
2022-09-05T05:55:24.736Z,84.35
2022-09-05T05:56:06.018Z,84.25
2022-09-05T05:57:14.792Z,84.15
2022-09-05T05:58:05.971Z,84.15
2022-09-05T05:59:04.987Z,84.15
2022-09-05T06:00:04.954Z,84.05
2022-09-05T06:01:05.047Z,84.01
2022-09-05T06:02:05.043Z,84.11
2022-09-05T06:03:26.430Z,84.11
2022-09-05T06:04:05.898Z,84.01
2022-09-05T06:05:04.909Z,83.81
2022-09-05T06:06:04.883Z,83.61
2022-09-05T06:07:04.877Z,83.71
2022-09-05T06:10:52.583Z,83.71
2022-09-05T06:13:44.653Z,83.51
2022-09-05T06:14:49.648Z,83.31
2022-09-05T06:14:52.839Z,83.40
2022-09-05T06:15:02.196Z,82.97
2022-09-05T06:15:04.288Z,83.20
2022-09-05T06:15:06.123Z,83.11
2022-09-05T06:15:12.190Z,83.06
2022-09-05T06:16:06.655Z,83.06
2022-09-05T06:17:04.751Z,82.56
2022-09-05T06:18:04.728Z,82.56
2022-09-05T06:19:04.711Z,81.96
2022-09-05T06:22:05.588Z,82.06
2022-09-05T06:22:10.060Z,82.26
2022-09-05T06:22:13.799Z,82.16
2022-09-05T06:23:05.642Z,82.06
2022-09-05T06:24:04.644Z,82.06
2022-09-05T06:25:17.048Z,81.85
2022-09-05T06:26:05.606Z,81.41
2022-09-05T06:27:04.623Z,81.82
2022-09-05T06:28:19.606Z,81.52
2022-09-05T06:29:05.563Z,81.21
2022-09-05T06:30:04.571Z,81.21
2022-09-05T06:31:30.577Z,81.21
2022-09-05T06:32:05.611Z,81.27
2022-09-05T06:33:04.513Z,81.18
2022-09-05T06:34:04.548Z,81.07
2022-09-05T06:35:04.534Z,81.07
2022-09-05T06:36:04.770Z,81.07
2022-09-05T06:37:04.482Z,80.77
2022-09-05T06:38:04.466Z,80.57
2022-09-05T06:39:04.569Z,80.68
2022-09-05T06:40:04.560Z,79.47
2022-09-05T06:41:04.408Z,79.03
2022-09-05T06:42:04.426Z,78.93
2022-09-05T06:43:04.390Z,78.93
2022-09-05T06:44:04.389Z,78.53
2022-09-05T06:45:20.159Z,77.99
2022-09-05T06:46:05.421Z,77.48
2022-09-05T06:47:24.120Z,77.39
2022-09-05T06:48:06.105Z,77.19
2022-09-05T06:49:30.322Z,76.95
2022-09-05T06:50:24.491Z,76.65
2022-09-05T06:51:08.289Z,76.75
2022-09-05T06:52:16.548Z,76.65
2022-09-05T06:53:14.426Z,76.75
2022-09-05T06:54:05.242Z,76.75
2022-09-05T06:55:04.253Z,76.41
2022-09-05T06:56:04.212Z,76.01
2022-09-05T06:57:04.237Z,75.81
2022-09-05T06:58:04.220Z,75.91
2022-09-05T06:59:09.003Z,75.71
2022-09-05T07:00:05.197Z,75.47
2022-09-05T07:01:04.264Z,75.07
2022-09-05T07:02:04.302Z,75.27
2022-09-05T07:03:04.135Z,74.77
2022-09-05T07:04:49.274Z,74.67
2022-09-05T07:05:37.059Z,74.37
2022-09-05T07:06:05.099Z,74.33
2022-09-05T07:07:06.500Z,74.33
2022-09-05T07:08:15.761Z,73.93
2022-09-05T07:09:05.031Z,74.03
2022-09-05T07:10:21.939Z,73.93
2022-09-05T07:11:16.070Z,73.53
2022-09-05T07:12:05.000Z,73.53
2022-09-05T07:13:04.023Z,73.33
2022-09-05T07:14:03.985Z,73.10
2022-09-05T07:15:08.685Z,72.89
2022-09-05T07:16:05.033Z,72.80
2022-09-05T07:17:03.929Z,73.00
2022-09-05T07:18:10.603Z,72.89
2022-09-05T07:19:04.908Z,73.10
2022-09-05T07:20:03.891Z,72.19
2022-09-05T07:21:18.167Z,72.30
2022-09-05T07:22:04.893Z,72.60
2022-09-05T07:23:49.306Z,72.16
2022-09-05T07:24:10.294Z,72.46
2022-09-05T07:25:04.823Z,72.36
2022-09-05T07:26:03.858Z,72.16
2022-09-05T07:27:03.812Z,72.26
2022-09-05T07:28:29.056Z,72.16
2022-09-05T07:29:04.784Z,71.83
2022-09-05T07:30:03.802Z,72.13
2022-09-05T07:31:03.819Z,71.83
2022-09-05T07:32:03.872Z,71.92
2022-09-05T07:33:03.730Z,71.12
2022-09-05T07:34:03.724Z,71.12
2022-09-05T07:35:04.715Z,71.23
2022-09-05T07:36:03.721Z,70.39
2022-09-05T07:37:14.043Z,70.49
2022-09-05T07:38:04.660Z,70.59
2022-09-05T07:39:28.201Z,70.79
2022-09-05T07:40:24.756Z,71.29
2022-09-05T07:41:04.628Z,70.99
2022-09-05T07:42:03.621Z,70.89
2022-09-05T07:43:09.786Z,70.46
2022-09-05T07:44:04.610Z,70.06
2022-09-05T07:45:03.566Z,69.76
2022-09-05T07:46:03.612Z,69.66
2022-09-05T07:47:03.548Z,69.66
2022-09-05T07:48:03.529Z,69.36
2022-09-05T07:49:03.521Z,68.82
2022-09-05T07:52:39.374Z,68.43
2022-09-05T07:56:47.857Z,68.03
2022-09-05T07:56:50.755Z,67.43
2022-09-05T07:56:51.098Z,67.93
2022-09-05T07:56:51.883Z,68.13
2022-09-05T07:56:52.761Z,67.19
2022-09-05T07:57:01.479Z,67.60
2022-09-05T07:58:04.411Z,66.39
2022-09-05T07:59:03.378Z,66.36
2022-09-05T08:00:03.374Z,66.77
2022-09-05T08:01:03.519Z,67.36
2022-09-05T08:02:03.337Z,67.26
2022-09-05T08:03:03.327Z,66.27
2022-09-05T08:04:05.465Z,65.77
2022-09-05T08:05:03.510Z,65.64
2022-09-05T08:06:03.297Z,66.24
2022-09-05T08:07:45.910Z,64.84
2022-09-05T08:08:04.287Z,64.74
2022-09-05T08:09:21.484Z,64.54
2022-09-05T08:10:07.014Z,65.01
2022-09-05T08:11:24.657Z,64.41
2022-09-05T08:12:09.670Z,64.21
2022-09-05T08:13:23.799Z,64.31
2022-09-05T08:14:43.369Z,63.71
2022-09-05T08:15:04.168Z,64.01
2022-09-05T08:16:10.701Z,63.51
2022-09-05T08:17:04.226Z,63.91
2022-09-05T08:18:03.156Z,63.88
2022-09-05T08:19:03.126Z,63.58
2022-09-05T08:20:09.206Z,63.78
2022-09-05T08:21:04.131Z,63.98
2022-09-05T08:22:03.099Z,63.68
2022-09-05T08:23:03.066Z,63.38
2022-09-05T08:24:13.319Z,62.98
2022-09-05T08:25:04.083Z,62.29
2022-09-05T08:26:03.069Z,62.55
2022-09-05T08:27:03.016Z,62.65
2022-09-05T08:28:03.032Z,62.65
2022-09-05T08:29:03.000Z,63.25
2022-09-05T08:30:25.782Z,63.65
2022-09-05T08:31:04.009Z,63.45
2022-09-05T08:32:02.966Z,64.15
2022-09-05T08:33:11.358Z,64.45
2022-09-05T08:34:03.941Z,63.05
2022-09-05T08:35:02.940Z,63.62
2022-09-05T08:36:02.941Z,62.72
2022-09-05T08:37:02.905Z,62.42
2022-09-05T08:38:02.886Z,62.13
2022-09-05T08:39:02.873Z,62.13
2022-09-05T08:40:10.859Z,62.02
2022-09-05T08:41:03.847Z,62.72
2022-09-05T08:42:06.071Z,62.23
2022-09-05T08:46:06.452Z,61.43
2022-09-05T08:46:37.682Z,60.70
2022-09-05T08:46:39.831Z,61.10
2022-09-05T08:46:42.191Z,61.50
2022-09-05T08:47:03.827Z,61.69
2022-09-05T08:48:02.792Z,61.60
2022-09-05T08:49:12.493Z,60.80
2022-09-05T08:50:03.748Z,60.68
2022-09-05T08:51:02.742Z,61.77
2022-09-05T08:52:02.721Z,60.27
2022-09-05T08:53:02.687Z,60.87
2022-09-05T08:54:03.704Z,59.28
2022-09-05T08:55:07.037Z,59.08
2022-09-05T08:56:03.668Z,59.98
2022-09-05T08:57:02.648Z,59.38
2022-09-05T08:58:02.633Z,59.68
2022-09-05T08:59:31.571Z,58.75
2022-09-05T09:00:19.179Z,59.25
2022-09-05T09:01:04.574Z,59.55
2022-09-05T09:02:45.503Z,59.25
2022-09-05T09:03:03.881Z,58.65
2022-09-05T09:04:02.593Z,58.36
2022-09-05T09:05:03.134Z,58.75
2022-09-05T09:06:13.671Z,59.25
2022-09-05T09:07:42.400Z,60.31
2022-09-05T09:08:03.509Z,59.62
2022-09-05T09:09:05.617Z,59.12
2022-09-05T09:10:02.475Z,59.12
2022-09-05T09:11:02.498Z,58.73
2022-09-05T09:12:02.436Z,58.33
2022-09-05T09:13:02.434Z,57.11
2022-09-05T09:14:02.450Z,56.81
2022-09-05T09:15:02.408Z,56.91
2022-09-05T09:16:02.432Z,56.41
2022-09-05T09:17:02.367Z,56.32
2022-09-05T09:18:05.643Z,55.22
2022-09-05T09:19:03.343Z,56.12
2022-09-05T09:20:02.351Z,56.91
2022-09-05T09:21:02.350Z,57.51
2022-09-05T09:22:02.318Z,56.32
2022-09-05T09:23:02.298Z,56.32
2022-09-05T09:24:02.286Z,55.02
2022-09-05T09:25:11.274Z,55.22
2022-09-05T09:26:03.266Z,55.32
2022-09-05T09:27:02.252Z,55.32
2022-09-05T09:28:50.482Z,55.40
2022-09-05T09:29:03.214Z,55.59
2022-09-05T09:30:02.217Z,55.79
2022-09-05T09:31:02.254Z,55.40
2022-09-05T09:32:02.188Z,56.49
2022-09-05T09:33:02.172Z,54.50
2022-09-05T09:34:02.144Z,55.10
2022-09-05T09:35:06.147Z,54.30
2022-09-05T09:36:04.140Z,54.90
2022-09-05T09:37:03.117Z,54.77
2022-09-05T09:38:02.107Z,54.68
2022-09-05T09:39:07.092Z,55.66
2022-09-05T09:40:03.171Z,54.68
2022-09-05T09:41:02.979Z,53.98
2022-09-05T09:42:02.058Z,54.68
2022-09-05T09:43:06.383Z,54.87
2022-09-05T09:44:03.043Z,54.68
2022-09-05T09:45:22.921Z,53.68
2022-09-05T09:46:03.076Z,53.16
2022-09-05T09:47:02.026Z,52.66
2022-09-05T09:48:01.977Z,52.56
2022-09-05T09:49:01.959Z,51.77
2022-09-05T09:50:01.960Z,51.87
2022-09-05T09:51:01.958Z,51.28
2022-09-05T09:52:01.914Z,52.54
2022-09-05T09:53:01.905Z,53.03
2022-09-05T09:54:01.886Z,52.84
2022-09-05T09:55:01.883Z,52.54
2022-09-05T09:56:06.123Z,52.04
2022-09-05T09:57:02.867Z,52.14
2022-09-05T09:58:01.865Z,52.04
2022-09-05T09:59:01.824Z,51.75
2022-09-05T10:00:01.827Z,52.04
2022-09-05T10:01:01.816Z,51.05
2022-09-05T10:02:24.028Z,50.65
2022-09-05T10:05:27.507Z,51.05
2022-09-05T10:05:41.477Z,50.46
2022-09-05T10:10:35.141Z,51.25
2022-09-05T10:10:43.853Z,50.85
2022-09-05T10:10:44.653Z,51.45
2022-09-05T10:10:45.729Z,50.04
2022-09-05T10:10:46.169Z,48.85
2022-09-05T10:10:46.672Z,47.06
2022-09-05T10:12:03.165Z,46.27
2022-09-05T10:13:08.246Z,46.67
2022-09-05T10:14:02.647Z,47.04
2022-09-05T10:15:27.749Z,47.93
2022-09-05T10:16:06.104Z,48.23
2022-09-05T10:17:01.609Z,48.63
2022-09-05T10:18:01.588Z,48.53
2022-09-05T10:19:01.576Z,48.82
2022-09-05T10:20:10.825Z,48.13
2022-09-05T10:21:16.044Z,48.53
2022-09-05T10:23:02.527Z,48.33
2022-09-05T10:24:01.514Z,48.23
2022-09-05T10:25:19.473Z,49.81
2022-09-05T10:26:02.491Z,48.72
2022-09-05T10:27:01.488Z,47.04
2022-09-05T10:28:01.468Z,46.72
2022-09-05T10:29:37.004Z,46.23
2022-09-05T10:30:03.380Z,46.33
2022-09-05T10:33:11.877Z,46.82
2022-09-05T10:35:09.524Z,46.62
2022-09-05T10:35:13.521Z,46.72
2022-09-05T10:35:13.602Z,46.23
2022-09-05T10:35:17.785Z,46.23
2022-09-05T10:36:02.427Z,46.62
2022-09-05T10:37:01.323Z,45.63
2022-09-05T10:38:10.156Z,46.12
2022-09-05T10:39:02.307Z,45.93
2022-09-05T10:40:01.391Z,46.62
2022-09-05T10:41:19.917Z,45.23
2022-09-05T10:42:03.520Z,45.53
2022-09-05T10:43:01.541Z,46.72
2022-09-05T10:44:01.259Z,46.12
2022-09-05T10:45:01.225Z,46.52
2022-09-05T10:46:01.313Z,47.91
2022-09-05T10:47:01.738Z,47.12
2022-09-05T10:48:13.415Z,46.33
2022-09-05T10:49:04.742Z,45.63
2022-09-05T10:50:01.176Z,46.42
2022-09-05T10:51:01.395Z,46.12
2022-09-05T10:52:04.084Z,46.33
2022-09-05T10:53:02.143Z,46.52
2022-09-05T10:54:01.127Z,46.52
2022-09-05T10:55:13.617Z,46.50
2022-09-05T10:56:02.086Z,47.19
2022-09-05T10:57:01.086Z,45.61
2022-09-05T10:58:01.125Z,45.90
2022-09-05T11:01:49.932Z,45.71
2022-09-05T11:02:20.818Z,45.71
2022-09-05T11:02:23.659Z,45.61
2022-09-05T11:02:28.290Z,45.51
2022-09-05T11:03:02.121Z,45.71
2022-09-05T11:04:01.116Z,45.21
2022-09-05T11:05:01.002Z,45.41
2022-09-05T11:06:09.171Z,44.42
2022-09-05T11:07:01.953Z,44.92
2022-09-05T11:08:00.951Z,45.01
2022-09-05T11:09:00.941Z,45.51
2022-09-05T11:10:00.930Z,45.21
2022-09-05T11:11:00.914Z,44.42
2022-09-05T11:12:00.904Z,45.12
2022-09-05T11:13:00.898Z,45.12
2022-09-05T11:14:00.864Z,44.50
2022-09-05T11:15:00.856Z,44.80
2022-09-05T11:16:04.920Z,44.60
2022-09-05T11:17:01.843Z,44.01
2022-09-05T11:18:00.827Z,43.91
2022-09-05T11:19:00.792Z,42.82
2022-09-05T11:20:00.782Z,42.52
2022-09-05T11:21:00.772Z,42.03
2022-09-05T11:22:13.683Z,42.52
2022-09-05T11:23:01.756Z,42.52
2022-09-05T11:24:00.732Z,42.62
2022-09-05T11:25:00.733Z,43.02
2022-09-05T11:26:00.715Z,42.30
2022-09-05T11:27:23.377Z,42.60
2022-09-05T11:28:01.683Z,42.03
2022-09-05T11:29:01.089Z,42.13
2022-09-05T11:30:00.655Z,42.22
2022-09-05T11:31:00.672Z,41.73
2022-09-05T11:36:29.600Z,42.13
2022-09-05T11:38:42.241Z,42.03
2022-09-05T11:39:46.114Z,42.32
2022-09-05T11:39:52.770Z,42.62
2022-09-05T11:40:04.116Z,41.93
2022-09-05T11:40:05.031Z,42.13
2022-09-05T11:40:09.967Z,42.22
2022-09-05T11:40:10.957Z,42.22
2022-09-05T11:40:31.615Z,41.53
2022-09-05T11:41:11.595Z,41.63
2022-09-05T11:42:01.598Z,41.83
2022-09-05T11:43:00.506Z,41.91
2022-09-05T11:44:24.709Z,42.01
2022-09-05T11:45:01.463Z,41.81
2022-09-05T11:46:00.513Z,41.91
2022-09-05T11:47:28.324Z,42.60
2022-09-05T11:48:01.426Z,42.21
2022-09-05T11:49:00.436Z,42.50
2022-09-05T11:50:00.393Z,42.60
2022-09-05T11:51:00.386Z,42.50
2022-09-05T11:52:00.385Z,42.01
2022-09-05T11:53:00.356Z,42.30
2022-09-05T11:54:00.358Z,42.40
2022-09-05T11:55:00.340Z,41.91
2022-09-05T11:56:00.325Z,41.24
2022-09-05T11:57:18.046Z,41.24
2022-09-05T11:58:01.314Z,41.53
2022-09-05T11:59:05.120Z,42.35
2022-09-05T12:00:33.252Z,42.84
2022-09-05T12:01:38.200Z,42.54
2022-09-05T12:02:08.255Z,42.57
2022-09-05T12:03:01.247Z,43.06
2022-09-05T12:04:01.089Z,42.66
2022-09-05T12:05:48.364Z,42.46
2022-09-05T12:06:01.302Z,42.96
2022-09-05T12:07:00.523Z,42.84
2022-09-05T12:08:00.178Z,42.74
2022-09-05T12:09:00.156Z,42.82
2022-09-05T12:10:00.203Z,42.82
2022-09-05T12:11:00.136Z,42.72
2022-09-05T12:12:00.103Z,42.82
2022-09-05T12:13:00.106Z,43.21
2022-09-05T12:14:00.097Z,43.02
2022-09-05T12:15:01.064Z,42.43
2022-09-05T12:16:08.153Z,42.82
2022-09-05T12:17:01.040Z,42.82
2022-09-05T12:18:00.044Z,43.02
2022-09-05T12:19:07.542Z,42.52
2022-09-05T12:20:00.992Z,41.73
2022-09-05T12:21:00.003Z,41.63
2022-09-05T12:21:59.974Z,40.64
2022-09-05T12:23:00.985Z,40.94
2022-09-05T12:24:59.253Z,40.84
2022-09-05T12:26:32.105Z,40.72
2022-09-05T12:27:36.927Z,40.13
2022-09-05T12:27:40.467Z,41.71
2022-09-05T12:29:29.454Z,41.12
2022-09-05T12:30:01.209Z,41.41
2022-09-05T12:31:58.904Z,41.52
2022-09-05T12:34:21.271Z,41.81
2022-09-05T12:35:19.780Z,40.92
2022-09-05T12:36:05.828Z,40.72
2022-09-05T12:36:05.996Z,40.33
2022-09-05T12:36:13.011Z,40.42
2022-09-05T12:40:00.919Z,40.80
2022-09-05T12:40:40.421Z,40.21
2022-09-05T12:41:34.083Z,40.21
2022-09-05T12:41:35.733Z,40.31
2022-09-05T12:41:36.241Z,41.00
2022-09-05T12:41:41.809Z,40.23
2022-09-05T12:42:15.103Z,40.80
2022-09-05T12:43:56.077Z,41.39
2022-09-05T12:44:38.536Z,41.49
2022-09-05T12:45:01.335Z,42.78
2022-09-05T12:45:59.655Z,41.99
2022-09-05T12:46:59.660Z,41.00
2022-09-05T12:48:00.655Z,40.50
2022-09-05T12:49:52.247Z,40.33
2022-09-05T12:50:48.799Z,40.23
2022-09-05T12:51:51.495Z,40.13
2022-09-05T12:52:51.528Z,40.62
2022-09-05T12:53:48.762Z,40.13
2022-09-05T12:54:48.813Z,40.72
2022-09-05T12:55:53.720Z,40.33
2022-09-05T13:01:41.981Z,41.10